createdAt,value
2022-08-31T00:00:55.651Z,101529.06
2022-08-31T00:03:43.518Z,101528.19
2022-08-31T00:06:11.204Z,101521.06
2022-08-31T00:08:38.923Z,101525.53
2022-08-31T00:11:09.874Z,101532.75
2022-08-31T00:13:38.261Z,101526.53
2022-08-31T00:16:08.870Z,101532.81
2022-08-31T00:18:37.206Z,101530.16
2022-08-31T00:21:06.223Z,101531.94
2022-08-31T00:23:33.908Z,101530.22
2022-08-31T00:26:01.602Z,101540.06
2022-08-31T00:28:29.327Z,101533.81
2022-08-31T00:30:57.188Z,101541.88
2022-08-31T00:33:26.218Z,101529.41
2022-08-31T00:35:53.919Z,101534.78
2022-08-31T00:38:22.802Z,101527.63
2022-08-31T00:40:52.297Z,101529.44
2022-08-31T00:43:41.936Z,101528.63
2022-08-31T00:46:12.092Z,101538.53
2022-08-31T00:48:45.581Z,101543.00
2022-08-31T00:51:18.571Z,101541.25
2022-08-31T00:53:50.709Z,101543.97
2022-08-31T00:56:19.873Z,101548.41
2022-08-31T00:58:54.547Z,101546.66
2022-08-31T01:01:23.812Z,101542.19
2022-08-31T01:03:53.193Z,101527.91
2022-08-31T01:06:21.597Z,101528.88
2022-08-31T01:08:51.081Z,101530.66
2022-08-31T01:11:21.132Z,101531.59
2022-08-31T01:13:54.169Z,101531.56
2022-08-31T01:16:27.273Z,101525.34
2022-08-31T01:18:59.727Z,101526.25
2022-08-31T01:21:32.892Z,101518.25
2022-08-31T01:24:03.318Z,101520.94
2022-08-31T01:26:34.072Z,101524.56
2022-08-31T01:29:05.602Z,101520.13
2022-08-31T01:31:35.765Z,101516.59
2022-08-31T01:34:04.976Z,101521.09
2022-08-31T01:36:35.038Z,101522.03
2022-08-31T01:39:04.864Z,101522.09
2022-08-31T01:41:32.563Z,101530.19
2022-08-31T01:44:01.531Z,101527.53
2022-08-31T01:46:29.972Z,101530.25
2022-08-31T01:48:57.687Z,101528.53
2022-08-31T01:51:25.337Z,101536.59
2022-08-31T01:53:54.246Z,101528.63
2022-08-31T01:56:26.071Z,101528.66
2022-08-31T01:58:55.190Z,101535.81
2022-08-31T02:01:47.511Z,101532.28
2022-08-31T02:04:19.663Z,101526.97
2022-08-31T02:06:49.879Z,101534.13
2022-08-31T02:09:19.922Z,101534.16
2022-08-31T02:11:49.359Z,101531.50
2022-08-31T02:14:18.967Z,101537.81
2022-08-31T02:16:47.334Z,101528.00
2022-08-31T02:19:14.978Z,101529.81
2022-08-31T02:21:42.834Z,101525.41
2022-08-31T02:24:12.358Z,101533.50
2022-08-31T02:26:41.014Z,101529.97
2022-08-31T02:29:10.009Z,101536.22
2022-08-31T02:31:38.143Z,101538.94
2022-08-31T02:34:06.230Z,101531.84
2022-08-31T02:36:34.821Z,101535.44
2022-08-31T02:39:06.014Z,101531.03
2022-08-31T02:41:34.918Z,101541.75
2022-08-31T02:44:03.045Z,101534.59
2022-08-31T02:46:32.365Z,101540.88
2022-08-31T02:49:35.676Z,101538.22
2022-08-31T02:52:04.003Z,101538.22
2022-08-31T02:54:31.653Z,101541.81
2022-08-31T02:57:02.745Z,101533.78
2022-08-31T02:59:30.445Z,101537.38
2022-08-31T03:02:00.433Z,101543.63
2022-08-31T03:04:28.315Z,101537.38
2022-08-31T03:06:56.050Z,101539.22
2022-08-31T03:09:24.297Z,101534.75
2022-08-31T03:11:51.943Z,101537.44
2022-08-31T03:14:19.610Z,101536.56
2022-08-31T03:16:47.475Z,101526.75
2022-08-31T03:19:22.262Z,101533.03
2022-08-31T03:21:56.131Z,101530.34
2022-08-31T03:24:27.500Z,101531.25
2022-08-31T03:26:55.899Z,101524.16
2022-08-31T03:29:23.527Z,101529.53
2022-08-31T03:31:56.842Z,101525.97
2022-08-31T03:34:27.689Z,101531.34
2022-08-31T03:36:55.781Z,101535.81
2022-08-31T03:39:23.546Z,101530.50
2022-08-31T03:41:51.286Z,101531.38
2022-08-31T03:44:23.855Z,101530.53
2022-08-31T03:46:56.419Z,101521.63
2022-08-31T03:49:24.762Z,101521.66
2022-08-31T03:52:16.427Z,101527.91
2022-08-31T03:54:48.013Z,101526.16
2022-08-31T03:57:15.948Z,101529.72
2022-08-31T03:59:43.967Z,101527.13
2022-08-31T04:02:20.838Z,101537.84
2022-08-31T04:05:21.379Z,101529.84
2022-08-31T04:08:08.854Z,101534.34
2022-08-31T04:11:08.697Z,101535.28
2022-08-31T04:13:42.682Z,101533.50
2022-08-31T04:16:18.822Z,101540.69
2022-08-31T04:18:55.367Z,101543.38
2022-08-31T04:21:26.353Z,101555.88
2022-08-31T04:23:56.045Z,101547.00
2022-08-31T04:26:26.838Z,101556.78
2022-08-31T04:28:54.643Z,101551.44
2022-08-31T04:31:23.701Z,101553.25
2022-08-31T04:33:52.311Z,101555.94
2022-08-31T04:36:21.942Z,101564.91
2022-08-31T04:38:56.284Z,101564.91
2022-08-31T04:41:26.908Z,101564.91
2022-08-31T04:43:56.343Z,101562.25
2022-08-31T04:46:25.925Z,101572.06
2022-08-31T04:48:55.575Z,101570.28
2022-08-31T04:51:31.096Z,101567.63
2022-08-31T04:54:00.101Z,101564.06
2022-08-31T04:56:29.862Z,101564.97
2022-08-31T04:59:00.387Z,101566.75
2022-08-31T05:01:42.397Z,101572.06
2022-08-31T05:04:38.853Z,101565.00
2022-08-31T05:07:06.878Z,101570.31
2022-08-31T05:09:36.678Z,101558.72
2022-08-31T05:12:04.945Z,101568.53
2022-08-31T05:14:32.656Z,101572.94
2022-08-31T05:17:06.300Z,101572.06
2022-08-31T05:19:41.513Z,101574.75
2022-08-31T05:22:09.240Z,101570.28
2022-08-31T05:24:41.077Z,101577.41
2022-08-31T05:27:09.803Z,101574.72
2022-08-31T05:29:37.761Z,101572.06
2022-08-31T05:32:31.109Z,101577.41
2022-08-31T05:35:00.477Z,101583.66
2022-08-31T05:37:28.224Z,101580.97
2022-08-31T05:39:57.289Z,101588.13
2022-08-31T05:42:25.363Z,101577.41
2022-08-31T05:44:53.077Z,101585.44
2022-08-31T05:47:20.801Z,101578.28
2022-08-31T05:49:48.517Z,101591.66
2022-08-31T05:52:19.875Z,101584.50
2022-08-31T05:54:52.961Z,101590.72
2022-08-31T05:57:26.381Z,101597.84
2022-08-31T05:59:55.804Z,101596.91
2022-08-31T06:02:27.522Z,101595.09
2022-08-31T06:04:58.218Z,101590.66
2022-08-31T06:07:26.522Z,101595.06
2022-08-31T06:09:58.305Z,101608.44
2022-08-31T06:12:27.604Z,101613.78
2022-08-31T06:14:56.342Z,101603.94
2022-08-31T06:17:24.264Z,101608.41
2022-08-31T06:19:52.154Z,101612.81
2022-08-31T06:22:20.408Z,101613.69
2022-08-31T06:24:49.501Z,101611.88
2022-08-31T06:27:17.537Z,101618.06
2022-08-31T06:29:47.078Z,101614.50
2022-08-31T06:32:15.753Z,101619.81
2022-08-31T06:34:54.720Z,101613.53
2022-08-31T06:37:58.004Z,101624.22
2022-08-31T06:40:48.458Z,101616.09
2022-08-31T06:43:32.994Z,101620.56
2022-08-31T06:46:07.400Z,101624.94
2022-08-31T06:49:05.432Z,101611.56
2022-08-31T06:51:38.164Z,101626.66
2022-08-31T06:54:27.863Z,101622.16
2022-08-31T06:57:31.314Z,101623.00
2022-08-31T07:00:02.252Z,101618.47
2022-08-31T07:03:22.862Z,101627.34
2022-08-31T07:05:53.006Z,101627.31
2022-08-31T07:08:21.485Z,101629.94
2022-08-31T07:10:49.826Z,101620.06
2022-08-31T07:13:17.624Z,101622.66
2022-08-31T07:15:45.367Z,101620.88
2022-08-31T07:18:14.666Z,101619.94
2022-08-31T07:20:42.322Z,101630.63
2022-08-31T07:23:12.670Z,101623.44
2022-08-31T07:25:47.197Z,101627.78
2022-08-31T07:28:14.905Z,101631.28
2022-08-31T07:30:43.009Z,101628.53
2022-08-31T07:33:16.817Z,101633.78
2022-08-31T07:35:50.064Z,101629.25
2022-08-31T07:38:53.225Z,101636.31
2022-08-31T07:41:50.735Z,101629.97
2022-08-31T07:44:20.109Z,101627.19
2022-08-31T07:46:49.202Z,101630.63
2022-08-31T07:49:19.476Z,101640.31
2022-08-31T07:52:13.177Z,101638.41
2022-08-31T07:55:04.902Z,101642.78
2022-08-31T07:57:49.017Z,101646.19
2022-08-31T08:00:21.338Z,101654.06
2022-08-31T08:02:53.063Z,101649.41
2022-08-31T08:05:28.926Z,101650.09
2022-08-31T08:08:22.838Z,101653.53
2022-08-31T08:11:21.051Z,101650.75
2022-08-31T08:14:08.671Z,101651.50
2022-08-31T08:16:53.320Z,101663.00
2022-08-31T08:19:38.378Z,101653.00
2022-08-31T08:22:07.819Z,101656.38
2022-08-31T08:25:06.913Z,101669.53
2022-08-31T08:27:45.303Z,101659.41
2022-08-31T08:30:31.699Z,101659.25
2022-08-31T08:33:01.301Z,101659.91
2022-08-31T08:35:32.681Z,101664.13
2022-08-31T08:38:07.606Z,101670.22
2022-08-31T08:40:42.511Z,101668.22
2022-08-31T08:43:15.921Z,101668.72
2022-08-31T08:45:46.517Z,101667.50
2022-08-31T08:48:17.228Z,101664.44
2022-08-31T08:50:45.317Z,101665.25
2022-08-31T08:53:29.107Z,101674.75
2022-08-31T08:56:32.752Z,101673.44
2022-08-31T08:59:02.224Z,101673.97
2022-08-31T09:01:37.427Z,101672.78
2022-08-31T09:04:13.593Z,101671.47
2022-08-31T09:07:21.075Z,101681.22
2022-08-31T09:09:58.352Z,101671.81
2022-08-31T09:12:36.088Z,101675.84
2022-08-31T09:15:17.934Z,101675.41
2022-08-31T09:17:59.848Z,101678.38
2022-08-31T09:20:28.418Z,101675.88
2022-08-31T09:22:58.618Z,101673.38
2022-08-31T09:25:33.218Z,101671.94
2022-08-31T09:28:02.203Z,101672.28
2022-08-31T09:30:39.726Z,101665.53
2022-08-31T09:33:08.148Z,101662.16
2022-08-31T09:35:41.364Z,101659.97
2022-08-31T09:38:11.164Z,101668.41
2022-08-31T09:40:43.203Z,101663.28
2022-08-31T09:43:18.163Z,101658.34
2022-08-31T09:45:56.358Z,101664.22
2022-08-31T09:48:51.378Z,101664.44
2022-08-31T09:51:25.498Z,101663.78
2022-08-31T09:54:11.581Z,101657.91
2022-08-31T09:56:55.490Z,101656.09
2022-08-31T09:59:37.573Z,101658.31
2022-08-31T10:02:09.137Z,101655.88
2022-08-31T10:04:51.094Z,101651.84
2022-08-31T10:07:41.954Z,101647.44
2022-08-31T10:10:28.049Z,101644.00
2022-08-31T10:13:05.244Z,101638.63
2022-08-31T10:15:42.169Z,101636.78
2022-08-31T10:18:16.938Z,101636.50
2022-08-31T10:20:51.727Z,101630.56
2022-08-31T10:23:28.466Z,101635.75
2022-08-31T10:26:02.270Z,101620.50
2022-08-31T10:28:36.575Z,101634.16
2022-08-31T10:31:13.584Z,101631.78
2022-08-31T10:34:05.014Z,101622.03
2022-08-31T10:36:38.752Z,101625.31
2022-08-31T10:39:29.700Z,101622.50
2022-08-31T10:41:58.842Z,101618.75
2022-08-31T10:44:36.404Z,101617.91
2022-08-31T10:47:05.718Z,101615.63
2022-08-31T10:49:35.428Z,101618.28
2022-08-31T10:52:14.120Z,101612.91
2022-08-31T10:54:48.862Z,101623.63
2022-08-31T10:57:32.046Z,101616.97
2022-08-31T11:00:08.459Z,101614.97
2022-08-31T11:02:48.565Z,101612.94
2022-08-31T11:05:32.602Z,101619.97
2022-08-31T11:08:18.440Z,101617.44
2022-08-31T11:10:51.826Z,101609.81
2022-08-31T11:13:39.318Z,101613.66
2022-08-31T11:16:22.322Z,101604.06
2022-08-31T11:19:17.221Z,101604.53
2022-08-31T11:22:02.859Z,101605.63
2022-08-31T11:25:04.019Z,101595.66
2022-08-31T11:27:36.981Z,101592.28
2022-08-31T11:30:07.937Z,101594.53
2022-08-31T11:32:40.741Z,101601.44
2022-08-31T11:35:10.761Z,101587.75
2022-08-31T11:37:57.143Z,101593.09
2022-08-31T11:41:03.074Z,101585.88
2022-08-31T11:43:52.046Z,101588.41
2022-08-31T11:47:02.274Z,101589.91
2022-08-31T11:49:51.720Z,101589.25
2022-08-31T11:52:48.417Z,101589.84
2022-08-31T11:55:23.042Z,101592.78
2022-08-31T11:58:22.511Z,101579.06
2022-08-31T12:00:59.167Z,101584.88
2022-08-31T12:03:51.615Z,101572.31
2022-08-31T12:07:00.827Z,101566.78
2022-08-31T12:09:52.117Z,101572.53
2022-08-31T12:12:31.255Z,101575.66
2022-08-31T12:15:09.267Z,101575.84
2022-08-31T12:17:51.205Z,101572.75
2022-08-31T12:20:26.423Z,101565.41
2022-08-31T12:23:31.479Z,101566.34
2022-08-31T12:26:31.163Z,101564.22
2022-08-31T12:29:21.590Z,101551.34
2022-08-31T12:32:10.886Z,101562.13
2022-08-31T12:34:42.029Z,101550.28
2022-08-31T12:37:22.218Z,101548.94
2022-08-31T12:40:12.465Z,101557.00
2022-08-31T12:42:48.776Z,101552.69
2022-08-31T12:45:17.994Z,101558.75
2022-08-31T12:47:56.859Z,101557.25
2022-08-31T12:50:34.030Z,101560.16
2022-08-31T12:53:40.121Z,101565.00
2022-08-31T12:56:14.857Z,101547.72
2022-08-31T12:59:00.693Z,101549.13
2022-08-31T13:01:29.272Z,101556.47
2022-08-31T13:04:01.660Z,101552.03
2022-08-31T13:06:31.836Z,101556.00
2022-08-31T13:09:00.959Z,101548.34
2022-08-31T13:11:41.209Z,101550.84
2022-08-31T13:14:14.849Z,101558.09
2022-08-31T13:16:45.065Z,101544.75
2022-08-31T13:19:25.787Z,101534.78
2022-08-31T13:21:57.303Z,101538.06
2022-08-31T13:24:30.969Z,101541.78
2022-08-31T13:27:17.089Z,101532.03
2022-08-31T13:29:47.468Z,101539.28
2022-08-31T13:32:30.738Z,101530.72
2022-08-31T13:34:58.772Z,101538.41
2022-08-31T13:37:35.137Z,101540.72
2022-08-31T13:40:09.280Z,101526.56
2022-08-31T13:42:41.349Z,101533.88
2022-08-31T13:45:26.300Z,101526.63
2022-08-31T13:47:59.533Z,101532.31
2022-08-31T13:50:33.334Z,101526.84
2022-08-31T13:53:25.960Z,101529.81
2022-08-31T13:55:51.275Z,101534.19
2022-08-31T13:58:27.668Z,101528.50
2022-08-31T14:01:21.054Z,101527.16
2022-08-31T14:03:57.273Z,101525.09
2022-08-31T14:06:27.488Z,101526.31
2022-08-31T14:09:03.232Z,101534.41
2022-08-31T14:11:33.744Z,101524.03
2022-08-31T14:14:08.283Z,101525.56
2022-08-31T14:16:43.625Z,101520.47
2022-08-31T14:19:14.182Z,101527.00
2022-08-31T14:21:43.553Z,101526.53
2022-08-31T14:24:13.120Z,101527.28
2022-08-31T14:26:43.048Z,101524.66
2022-08-31T14:29:13.253Z,101533.44
2022-08-31T14:31:46.892Z,101521.88
2022-08-31T14:34:23.086Z,101529.69
2022-08-31T14:36:54.210Z,101533.47
2022-08-31T14:39:24.417Z,101535.28
2022-08-31T14:41:54.629Z,101530.56
2022-08-31T14:44:26.412Z,101530.69
2022-08-31T14:46:55.427Z,101528.47
2022-08-31T14:49:23.504Z,101527.13
2022-08-31T14:51:51.223Z,101520.34
2022-08-31T14:54:18.975Z,101522.75
2022-08-31T14:56:50.227Z,101517.00
2022-08-31T14:59:21.755Z,101522.00
2022-08-31T15:01:50.593Z,101522.59
2022-08-31T15:04:21.981Z,101512.34
2022-08-31T15:06:54.857Z,101528.75
2022-08-31T15:09:22.868Z,101512.94
2022-08-31T15:11:50.952Z,101517.88
2022-08-31T15:14:18.670Z,101519.50
2022-08-31T15:16:48.408Z,101516.56
2022-08-31T15:19:16.563Z,101517.22
2022-08-31T15:21:52.831Z,101514.09
2022-08-31T15:24:31.041Z,101522.38
2022-08-31T15:26:59.617Z,101507.94
2022-08-31T15:29:30.373Z,101508.84
2022-08-31T15:31:59.807Z,101505.31
2022-08-31T15:34:31.239Z,101505.22
2022-08-31T15:37:02.959Z,101490.44
2022-08-31T15:39:32.962Z,101492.47
2022-08-31T15:42:02.837Z,101504.59
2022-08-31T15:44:30.604Z,101506.72
2022-08-31T15:47:16.138Z,101498.50
2022-08-31T15:49:44.522Z,101503.41
2022-08-31T15:52:13.710Z,101497.28
2022-08-31T15:54:42.187Z,101488.69
2022-08-31T15:57:11.379Z,101490.22
2022-08-31T15:59:43.051Z,101491.66
2022-08-31T16:02:13.307Z,101486.19
2022-08-31T16:04:42.972Z,101486.66
2022-08-31T16:07:14.237Z,101483.34
2022-08-31T16:09:44.758Z,101481.06
2022-08-31T16:12:13.799Z,101480.19
2022-08-31T16:14:44.692Z,101477.47
2022-08-31T16:17:19.380Z,101473.28
2022-08-31T16:19:47.282Z,101468.31
2022-08-31T16:22:16.992Z,101481.47
2022-08-31T16:24:46.994Z,101476.69
2022-08-31T16:27:17.020Z,101476.19
2022-08-31T16:29:45.810Z,101464.91
2022-08-31T16:32:14.280Z,101468.84
2022-08-31T16:34:42.776Z,101474.72
2022-08-31T16:37:10.728Z,101474.06
2022-08-31T16:39:47.047Z,101467.25
2022-08-31T16:42:15.893Z,101476.78
2022-08-31T16:44:46.310Z,101475.41
2022-08-31T16:47:16.297Z,101472.22
2022-08-31T16:49:43.792Z,101479.09
2022-08-31T16:52:14.809Z,101470.41
2022-08-31T16:54:48.038Z,101470.84
2022-08-31T16:57:19.076Z,101469.38
2022-08-31T16:59:46.926Z,101476.13
2022-08-31T17:02:16.658Z,101472.75
2022-08-31T17:04:53.973Z,101474.78
2022-08-31T17:07:26.349Z,101482.31
2022-08-31T17:10:07.160Z,101473.69
2022-08-31T17:12:37.615Z,101474.91
2022-08-31T17:15:06.445Z,101477.03
2022-08-31T17:17:34.254Z,101480.09
2022-08-31T17:20:02.085Z,101478.66
2022-08-31T17:22:33.752Z,101485.38
2022-08-31T17:25:04.748Z,101475.94
2022-08-31T17:27:34.303Z,101477.25
2022-08-31T17:30:05.910Z,101479.56
2022-08-31T17:32:36.735Z,101498.84
2022-08-31T17:35:18.299Z,101492.03
2022-08-31T17:37:46.757Z,101492.38
2022-08-31T17:40:16.859Z,101494.50
2022-08-31T17:42:44.802Z,101490.19
2022-08-31T17:45:13.068Z,101490.44
2022-08-31T17:47:41.429Z,101493.34
2022-08-31T17:50:10.236Z,101495.38
2022-08-31T17:52:38.006Z,101498.25
2022-08-31T17:55:07.517Z,101502.94
2022-08-31T17:57:36.592Z,101504.09
2022-08-31T18:00:06.228Z,101503.50
2022-08-31T18:02:37.825Z,101510.88
2022-08-31T18:05:09.469Z,101510.28
2022-08-31T18:07:40.881Z,101506.97
2022-08-31T18:10:09.943Z,101506.31
2022-08-31T18:12:41.308Z,101512.03
2022-08-31T18:15:10.441Z,101512.28
2022-08-31T18:17:38.278Z,101512.47
2022-08-31T18:20:06.960Z,101511.88
2022-08-31T18:22:34.759Z,101516.63
2022-08-31T18:25:02.908Z,101511.47
2022-08-31T18:27:30.776Z,101518.03
2022-08-31T18:30:00.851Z,101514.81
2022-08-31T18:32:29.359Z,101517.75
2022-08-31T18:34:57.513Z,101522.56
2022-08-31T18:37:26.047Z,101525.50
2022-08-31T18:40:12.110Z,101530.28
2022-08-31T18:42:57.620Z,101530.50
2022-08-31T18:45:28.163Z,101538.84
2022-08-31T18:50:46.877Z,101542.00
2022-08-31T18:53:29.557Z,101535.00
2022-08-31T18:55:59.637Z,101532.53
2022-08-31T18:58:27.667Z,101537.28
2022-08-31T19:00:59.246Z,101541.09
2022-08-31T19:03:28.647Z,101530.53
2022-08-31T19:05:56.885Z,101529.00
2022-08-31T19:08:26.136Z,101529.19
2022-08-31T19:10:56.577Z,101528.47
2022-08-31T19:13:24.737Z,101534.94
2022-08-31T19:15:52.771Z,101536.91
2022-08-31T19:18:22.093Z,101525.53
2022-08-31T19:20:49.878Z,101535.56
2022-08-31T19:23:20.201Z,101546.50
2022-08-31T19:25:48.822Z,101553.81
2022-08-31T19:28:16.978Z,101551.34
2022-08-31T19:30:47.697Z,101549.78
2022-08-31T19:33:16.630Z,101549.06
2022-08-31T19:35:46.114Z,101550.16
2022-08-31T19:38:14.559Z,101547.59
2022-08-31T19:40:42.782Z,101553.03
2022-08-31T19:46:16.035Z,101550.41
2022-08-31T19:48:45.376Z,101550.47
2022-08-31T19:51:17.583Z,101549.66
2022-08-31T19:53:46.464Z,101552.44
2022-08-31T19:56:17.718Z,101548.06
2022-08-31T19:58:48.557Z,101552.63
2022-08-31T20:01:18.190Z,101550.91
2022-08-31T20:03:48.220Z,101547.41
2022-08-31T20:06:20.379Z,101551.88
2022-08-31T20:08:49.799Z,101552.88
2022-08-31T20:11:21.958Z,101541.34
2022-08-31T20:13:50.553Z,101545.00
2022-08-31T20:16:19.384Z,101553.13
2022-08-31T20:18:48.769Z,101548.75
2022-08-31T20:21:19.868Z,101558.66
2022-08-31T20:23:49.557Z,101549.78
2022-08-31T20:26:20.035Z,101546.25
2022-08-31T20:28:49.578Z,101548.09
2022-08-31T20:31:18.863Z,101556.16
2022-08-31T20:33:47.034Z,101550.88
2022-08-31T20:36:18.946Z,101550.94
2022-08-31T20:38:49.581Z,101552.78
2022-08-31T20:41:17.441Z,101555.50
2022-08-31T20:43:45.630Z,101555.56
2022-08-31T20:46:34.385Z,101559.22
2022-08-31T20:49:20.321Z,101558.38
2022-08-31T20:51:48.368Z,101561.09
2022-08-31T20:54:18.311Z,101566.50
2022-08-31T20:56:46.730Z,101551.38
2022-08-31T20:59:14.350Z,101560.31
2022-08-31T21:01:42.012Z,101556.78
2022-08-31T21:04:10.416Z,101560.47
2022-08-31T21:06:39.146Z,101556.94
2022-08-31T21:09:08.179Z,101556.06
2022-08-31T21:11:40.656Z,101560.56
2022-08-31T21:14:08.663Z,101564.19
2022-08-31T21:16:36.360Z,101560.66
2022-08-31T21:19:06.817Z,101558.00
2022-08-31T21:21:34.577Z,101561.59
2022-08-31T21:24:02.228Z,101569.66
2022-08-31T21:26:29.841Z,101562.59
2022-08-31T21:28:59.792Z,101563.50
2022-08-31T21:31:29.186Z,101577.88
2022-08-31T21:33:59.971Z,101572.56
2022-08-31T21:36:28.508Z,101562.78
2022-08-31T21:38:58.178Z,101571.75
2022-08-31T21:41:29.485Z,101564.69
2022-08-31T21:43:59.254Z,101572.75
2022-08-31T21:46:29.622Z,101579.97
2022-08-31T21:48:59.299Z,101565.75
2022-08-31T21:51:29.096Z,101566.69
2022-08-31T21:53:59.632Z,101575.69
2022-08-31T21:56:29.484Z,101566.75
2022-08-31T21:58:57.994Z,101578.41
2022-08-31T22:01:29.572Z,101581.13
2022-08-31T22:03:59.436Z,101576.72
2022-08-31T22:06:31.100Z,101583.88
2022-08-31T22:09:01.042Z,101580.31
2022-08-31T22:11:31.660Z,101578.56
2022-08-31T22:14:00.541Z,101578.59
2022-08-31T22:16:29.546Z,101579.53
2022-08-31T22:19:01.750Z,101582.22
2022-08-31T22:21:34.483Z,101584.94
2022-08-31T22:24:05.798Z,101585.88
2022-08-31T22:26:37.696Z,101584.13
2022-08-31T22:29:06.305Z,101577.03
2022-08-31T22:31:37.230Z,101580.59
2022-08-31T22:34:05.744Z,101586.91
2022-08-31T22:36:34.521Z,101582.50
2022-08-31T22:39:03.722Z,101588.75
2022-08-31T22:41:32.734Z,101583.41
2022-08-31T22:44:01.242Z,101587.91
2022-08-31T22:46:29.245Z,101584.38
2022-08-31T22:48:58.704Z,101595.09
2022-08-31T22:51:27.436Z,101591.53
2022-08-31T22:53:55.336Z,101602.25
2022-08-31T22:56:26.124Z,101596.91
2022-08-31T22:58:55.077Z,101595.16
2022-08-31T23:01:25.601Z,101604.06
2022-08-31T23:03:55.135Z,101602.31
2022-08-31T23:06:26.670Z,101593.44
2022-08-31T23:08:57.086Z,101590.78
2022-08-31T23:11:26.062Z,101602.38
2022-08-31T23:13:56.508Z,101597.06
2022-08-31T23:16:27.078Z,101589.94
2022-08-31T23:18:57.625Z,101590.88
2022-08-31T23:21:27.787Z,101588.22
2022-08-31T23:23:56.111Z,101587.34
2022-08-31T23:26:24.866Z,101582.91
2022-08-31T23:28:53.523Z,101577.59
2022-08-31T23:31:21.957Z,101575.81
2022-08-31T23:33:53.173Z,101574.06
2022-08-31T23:36:25.892Z,101574.97
2022-08-31T23:38:55.790Z,101577.66
2022-08-31T23:41:26.102Z,101579.41
2022-08-31T23:43:54.566Z,101575.00
2022-08-31T23:46:25.005Z,101571.47
2022-08-31T23:48:53.446Z,101578.59
2022-08-31T23:51:22.385Z,101574.16
2022-08-31T23:53:53.974Z,101558.13
2022-08-31T23:56:31.798Z,101571.53
2022-08-31T23:59:01.062Z,101576.88
